createdAt,value
2022-08-07T00:00:02.975Z,17.20
2022-08-07T00:03:01.874Z,18.30
2022-08-07T00:05:32.084Z,17.00
2022-08-07T00:08:07.659Z,16.80
2022-08-07T00:10:48.109Z,16.40
2022-08-07T00:13:27.501Z,16.60
2022-08-07T00:15:56.275Z,17.10
2022-08-07T00:18:27.549Z,16.60
2022-08-07T00:21:03.512Z,17.00
2022-08-07T00:23:39.530Z,17.90
2022-08-07T00:26:18.854Z,17.10
2022-08-07T00:29:02.811Z,18.00
2022-08-07T00:31:37.270Z,17.10
2022-08-07T00:34:08.823Z,16.70
2022-08-07T00:36:43.142Z,17.40
2022-08-07T00:39:16.838Z,19.00
2022-08-07T00:42:01.770Z,20.20
2022-08-07T00:44:31.612Z,18.70
2022-08-07T00:47:03.233Z,18.10
2022-08-07T00:50:20.391Z,19.00
2022-08-07T00:52:24.481Z,18.60
2022-08-07T00:54:53.373Z,18.30
2022-08-07T00:57:25.825Z,18.30
2022-08-07T00:59:54.918Z,17.60
2022-08-07T01:02:28.326Z,17.60
2022-08-07T01:04:59.731Z,18.70
2022-08-07T01:07:29.250Z,18.00
2022-08-07T01:10:06.689Z,18.70
2022-08-07T01:12:53.516Z,18.30
2022-08-07T01:16:01.000Z,16.90
2022-08-07T01:18:17.031Z,17.00
2022-08-07T01:20:59.227Z,16.90
2022-08-07T01:23:36.868Z,18.60
2022-08-07T01:26:13.333Z,18.30
2022-08-07T01:28:51.312Z,17.70
2022-08-07T01:31:42.339Z,18.50
2022-08-07T01:34:17.749Z,16.90
2022-08-07T01:36:52.794Z,18.80
2022-08-07T01:39:39.616Z,17.90
2022-08-07T01:42:39.235Z,19.30
2022-08-07T01:45:22.935Z,18.20
2022-08-07T01:48:19.950Z,18.40
2022-08-07T01:51:24.267Z,17.40
2022-08-07T01:54:12.513Z,20.80
2022-08-07T01:56:57.290Z,19.40
2022-08-07T02:02:10.446Z,21.60
2022-08-07T02:07:50.248Z,21.30
2022-08-07T02:10:33.708Z,19.60
2022-08-07T02:13:04.511Z,20.30
2022-08-07T02:15:50.331Z,19.50
2022-08-07T02:18:27.134Z,19.40
2022-08-07T02:21:06.371Z,19.70
2022-08-07T02:23:40.746Z,19.30
2022-08-07T02:26:32.880Z,20.30
2022-08-07T02:29:02.102Z,18.50
2022-08-07T02:31:33.482Z,18.90
2022-08-07T02:34:11.507Z,19.30
2022-08-07T02:36:55.010Z,19.10
2022-08-07T02:39:43.435Z,18.60
2022-08-07T02:42:20.490Z,18.60
2022-08-07T02:44:52.696Z,19.20
2022-08-07T02:47:23.567Z,17.60
2022-08-07T02:50:00.049Z,17.80
2022-08-07T02:52:38.422Z,17.30
2022-08-07T02:55:28.578Z,18.60
2022-08-07T02:58:22.379Z,18.00
2022-08-07T03:00:59.717Z,17.80
2022-08-07T03:03:50.038Z,17.60
2022-08-07T03:06:32.865Z,20.30
2022-08-07T03:09:11.453Z,17.80
2022-08-07T03:11:51.672Z,18.80
2022-08-07T03:14:23.272Z,19.00
2022-08-07T03:16:56.113Z,20.20
2022-08-07T03:19:29.122Z,19.00
2022-08-07T03:22:18.917Z,18.60
2022-08-07T03:24:49.783Z,19.80
2022-08-07T03:27:30.900Z,19.30
2022-08-07T03:30:12.893Z,19.40
2022-08-07T03:32:48.965Z,18.80
2022-08-07T03:35:43.422Z,18.50
2022-08-07T03:38:17.143Z,20.70
2022-08-07T03:40:57.381Z,17.90
2022-08-07T03:43:32.318Z,18.00
2022-08-07T03:46:10.434Z,19.00
2022-08-07T03:49:03.131Z,18.60
2022-08-07T03:51:47.746Z,19.10
2022-08-07T03:54:35.252Z,16.90
2022-08-07T03:57:08.903Z,18.10
2022-08-07T03:59:46.773Z,18.60
2022-08-07T04:02:29.104Z,22.90
2022-08-07T04:04:58.832Z,17.80
2022-08-07T04:07:36.153Z,18.00
2022-08-07T04:10:15.704Z,18.30
2022-08-07T04:12:50.925Z,17.50
2022-08-07T04:15:20.754Z,19.20
2022-08-07T04:18:31.151Z,17.20
2022-08-07T04:20:54.677Z,17.30
2022-08-07T04:23:43.600Z,17.60
2022-08-07T04:26:21.919Z,17.90
2022-08-07T04:28:51.199Z,18.30
2022-08-07T04:31:38.657Z,18.60
2022-08-07T04:34:16.899Z,18.40
2022-08-07T04:36:49.609Z,19.80
2022-08-07T04:39:21.864Z,19.70
2022-08-07T04:41:55.538Z,18.90
2022-08-07T04:44:25.868Z,19.10
2022-08-07T04:47:23.557Z,18.40
2022-08-07T04:50:18.604Z,20.10
2022-08-07T04:53:39.966Z,19.00
2022-08-07T04:58:11.626Z,19.30
2022-08-07T05:00:09.695Z,22.80
2022-08-07T05:02:57.085Z,24.50
2022-08-07T05:05:52.913Z,25.50
2022-08-07T05:08:59.850Z,24.10
2022-08-07T05:11:57.102Z,21.10
2022-08-07T05:14:55.702Z,19.50
2022-08-07T05:17:52.319Z,18.90
2022-08-07T05:20:26.429Z,17.60
2022-08-07T05:23:02.065Z,18.90
2022-08-07T05:26:11.168Z,18.80
2022-08-07T05:28:26.862Z,18.60
2022-08-07T05:30:59.151Z,17.60
2022-08-07T05:33:35.565Z,17.40
2022-08-07T05:36:12.060Z,16.30
2022-08-07T05:39:00.226Z,16.30
2022-08-07T05:42:01.446Z,15.90
2022-08-07T05:44:29.626Z,16.20
2022-08-07T05:47:00.276Z,16.50
2022-08-07T05:49:41.093Z,16.20
2022-08-07T05:52:11.997Z,15.10
2022-08-07T05:54:53.410Z,15.00
2022-08-07T05:57:30.104Z,14.80
2022-08-07T06:00:01.645Z,16.10
2022-08-07T06:02:46.270Z,15.80
2022-08-07T06:05:18.115Z,14.60
2022-08-07T06:08:13.138Z,14.30
2022-08-07T06:10:42.585Z,13.20
2022-08-07T06:13:13.648Z,15.40
2022-08-07T06:15:49.954Z,13.60
2022-08-07T06:18:23.781Z,14.70
2022-08-07T06:22:16.917Z,13.60
2022-08-07T06:24:37.936Z,13.80
2022-08-07T06:26:41.769Z,13.40
2022-08-07T06:29:13.456Z,13.30
2022-08-07T06:31:50.323Z,14.30
2022-08-07T06:34:25.331Z,13.10
2022-08-07T06:36:59.444Z,12.70
2022-08-07T06:40:16.246Z,11.00
2022-08-07T06:42:38.321Z,11.30
2022-08-07T06:45:21.037Z,11.80
2022-08-07T06:47:58.585Z,11.60
2022-08-07T06:50:47.741Z,11.50
2022-08-07T06:55:30.085Z,13.10
2022-08-07T06:56:15.151Z,10.70
2022-08-07T07:00:13.438Z,10.90
2022-08-07T07:01:43.791Z,10.40
2022-08-07T07:04:27.965Z,11.10
2022-08-07T07:07:18.964Z,9.30
2022-08-07T07:09:50.818Z,8.80
2022-08-07T07:12:53.527Z,9.20
2022-08-07T07:15:32.703Z,9.30
2022-08-07T07:18:43.072Z,10.40
2022-08-07T07:21:27.274Z,7.70
2022-08-07T07:24:12.631Z,7.80
2022-08-07T07:26:51.671Z,8.40
2022-08-07T07:29:55.869Z,8.90
2022-08-07T07:32:18.796Z,10.60
2022-08-07T07:34:53.273Z,7.80
2022-08-07T07:37:49.458Z,10.10
2022-08-07T07:40:19.267Z,8.90
2022-08-07T07:42:55.553Z,7.90
2022-08-07T07:46:35.650Z,8.40
2022-08-07T07:48:35.363Z,9.40
2022-08-07T07:51:07.690Z,8.20
2022-08-07T07:53:51.884Z,7.80
2022-08-07T07:56:30.183Z,7.80
2022-08-07T07:59:05.881Z,7.00
2022-08-07T08:02:02.622Z,7.50
2022-08-07T08:04:30.560Z,14.30
2022-08-07T08:07:02.816Z,8.80
2022-08-07T08:09:52.518Z,7.30
2022-08-07T08:12:52.220Z,7.90
2022-08-07T08:15:23.207Z,7.60
2022-08-07T08:17:58.772Z,7.20
2022-08-07T08:20:47.977Z,7.90
2022-08-07T08:23:38.978Z,7.20
2022-08-07T08:26:28.987Z,11.00
2022-08-07T08:28:59.501Z,7.90
2022-08-07T08:32:16.769Z,6.40
2022-08-07T08:34:33.987Z,7.80
2022-08-07T08:37:04.711Z,8.50
2022-08-07T08:39:55.280Z,7.90
2022-08-07T08:42:34.154Z,7.80
2022-08-07T08:45:58.410Z,20.20
2022-08-07T08:48:47.351Z,7.60
2022-08-07T08:52:14.226Z,7.30
2022-08-07T08:55:05.685Z,6.30
2022-08-07T08:58:28.304Z,7.10
2022-08-07T09:01:16.189Z,7.00
2022-08-07T09:04:15.938Z,6.80
2022-08-07T09:07:25.396Z,6.40
2022-08-07T09:10:16.331Z,7.00
2022-08-07T09:13:09.210Z,9.20
2022-08-07T09:16:22.155Z,7.20
2022-08-07T09:18:42.649Z,6.80
2022-08-07T09:22:22.753Z,7.20
2022-08-07T09:25:00.400Z,6.50
2022-08-07T09:28:01.181Z,7.40
2022-08-07T09:31:04.381Z,6.30
2022-08-07T09:34:03.118Z,6.60
2022-08-07T09:36:37.375Z,6.80
2022-08-07T09:39:55.289Z,8.20
2022-08-07T09:42:34.877Z,7.30
2022-08-07T09:48:19.467Z,7.80
2022-08-07T09:51:14.528Z,6.90
2022-08-07T09:54:02.608Z,8.90
2022-08-07T09:56:48.665Z,7.20
2022-08-07T10:00:00.955Z,6.60
2022-08-07T10:03:08.302Z,8.20
2022-08-07T10:06:19.302Z,7.30
2022-08-07T10:09:06.681Z,8.50
2022-08-07T10:12:26.292Z,8.00
2022-08-07T10:15:24.377Z,7.20
2022-08-07T10:18:08.336Z,7.90
2022-08-07T10:20:50.933Z,6.70
2022-08-07T10:24:06.045Z,7.70
2022-08-07T10:27:10.578Z,6.00
2022-08-07T10:30:12.047Z,7.60
2022-08-07T10:34:14.287Z,7.50
2022-08-07T10:36:48.499Z,7.40
2022-08-07T10:39:41.549Z,6.40
2022-08-07T10:42:34.290Z,7.00
2022-08-07T10:45:45.116Z,6.20
2022-08-07T10:48:50.913Z,9.80
2022-08-07T10:51:39.264Z,6.30
2022-08-07T10:54:53.543Z,7.20
2022-08-07T10:57:56.123Z,7.70
2022-08-07T11:00:39.202Z,6.00
2022-08-07T11:03:18.195Z,7.70
2022-08-07T11:06:04.797Z,5.50
2022-08-07T11:10:07.096Z,6.00
2022-08-07T11:12:19.120Z,5.80
2022-08-07T11:15:09.581Z,6.70
2022-08-07T11:18:03.364Z,6.90
2022-08-07T11:20:49.130Z,6.60
2022-08-07T11:23:30.750Z,6.70
2022-08-07T11:26:24.985Z,7.00
2022-08-07T11:28:57.097Z,6.20
2022-08-07T11:31:45.059Z,5.70
2022-08-07T11:34:42.559Z,6.60
2022-08-07T11:37:19.010Z,8.30
2022-08-07T11:40:27.711Z,6.00
2022-08-07T11:42:59.880Z,6.10
2022-08-07T11:46:01.031Z,5.30
2022-08-07T11:49:51.538Z,5.60
2022-08-07T11:52:11.597Z,6.30
2022-08-07T11:55:02.745Z,5.90
2022-08-07T11:57:59.444Z,5.50
2022-08-07T12:00:48.918Z,5.80
2022-08-07T12:04:03.398Z,5.00
2022-08-07T12:07:01.014Z,5.90
2022-08-07T12:09:57.188Z,6.00
2022-08-07T12:13:03.270Z,6.50
2022-08-07T12:16:05.986Z,6.80
2022-08-07T12:18:45.712Z,6.40
2022-08-07T12:22:36.026Z,5.30
2022-08-07T12:25:07.875Z,6.10
2022-08-07T12:28:09.022Z,5.60
2022-08-07T12:30:46.875Z,6.40
2022-08-07T12:33:30.776Z,5.10
2022-08-07T12:36:16.813Z,5.90
2022-08-07T12:38:57.282Z,7.40
2022-08-07T12:41:42.780Z,5.40
2022-08-07T12:44:19.612Z,6.60
2022-08-07T12:47:13.808Z,6.60
2022-08-07T12:50:34.183Z,6.00
2022-08-07T12:54:03.418Z,6.70
2022-08-07T12:56:40.627Z,7.30
2022-08-07T12:59:20.385Z,7.50
2022-08-07T13:02:11.910Z,7.00
2022-08-07T13:05:01.716Z,6.50
2022-08-07T13:08:13.422Z,7.50
2022-08-07T13:10:52.414Z,6.50
2022-08-07T13:13:48.918Z,7.30
2022-08-07T13:16:38.211Z,6.00
2022-08-07T13:19:50.592Z,8.30
2022-08-07T13:22:53.391Z,6.40
2022-08-07T13:26:00.639Z,7.50
2022-08-07T13:28:39.447Z,6.40
2022-08-07T13:31:17.141Z,6.20
2022-08-07T13:36:59.450Z,6.70
2022-08-07T13:40:33.469Z,7.60
2022-08-07T13:42:39.908Z,7.00
2022-08-07T13:46:06.976Z,6.60
2022-08-07T13:48:06.959Z,6.10
2022-08-07T13:50:44.972Z,9.60
2022-08-07T13:53:59.291Z,7.30
2022-08-07T13:56:35.755Z,7.10
2022-08-07T13:59:18.017Z,7.30
2022-08-07T14:02:03.999Z,7.40
2022-08-07T14:04:54.425Z,8.30
2022-08-07T14:07:28.457Z,7.40
2022-08-07T14:10:21.645Z,7.80
2022-08-07T14:13:02.647Z,7.20
2022-08-07T14:15:39.631Z,7.80
2022-08-07T14:18:30.173Z,7.40
2022-08-07T14:21:21.043Z,12.30
2022-08-07T14:24:35.361Z,9.00
2022-08-07T14:28:09.295Z,8.40
2022-08-07T14:30:07.714Z,8.70
2022-08-07T14:32:50.547Z,7.40
2022-08-07T14:35:44.881Z,9.10
2022-08-07T14:38:26.095Z,7.20
2022-08-07T14:41:12.377Z,8.40
2022-08-07T14:43:58.072Z,11.00
2022-08-07T14:46:38.282Z,8.00
2022-08-07T14:49:58.287Z,8.00
2022-08-07T14:52:27.716Z,8.00
2022-08-07T14:55:00.100Z,9.20
2022-08-07T14:57:54.747Z,9.40
2022-08-07T15:03:16.485Z,9.40
2022-08-07T15:05:54.837Z,10.20
2022-08-07T15:08:49.949Z,8.70
2022-08-07T15:11:53.758Z,9.50
2022-08-07T15:14:30.344Z,9.50
2022-08-07T15:23:16.993Z,8.80
2022-08-07T15:25:56.285Z,10.70
2022-08-07T15:28:32.963Z,9.40
2022-08-07T15:34:12.416Z,12.10
2022-08-07T15:37:03.181Z,8.80
2022-08-07T15:39:56.553Z,8.60
2022-08-07T15:42:48.162Z,8.80
2022-08-07T15:45:23.541Z,9.50
2022-08-07T15:48:02.603Z,10.70
2022-08-07T15:51:01.327Z,8.10
2022-08-07T15:53:51.982Z,8.90
2022-08-07T15:56:41.374Z,8.30
2022-08-07T15:59:17.436Z,9.40
2022-08-07T16:02:01.625Z,7.80
2022-08-07T16:04:34.039Z,8.40
2022-08-07T16:08:33.270Z,10.40
2022-08-07T16:10:20.450Z,9.40
2022-08-07T16:13:17.418Z,10.20
2022-08-07T16:16:43.066Z,9.40
2022-08-07T16:19:09.553Z,8.90
2022-08-07T16:22:04.183Z,8.10
2022-08-07T16:24:52.700Z,9.00
2022-08-07T16:27:47.202Z,7.90
2022-08-07T16:30:32.444Z,8.70
2022-08-07T16:34:02.282Z,11.50
2022-08-07T16:36:34.113Z,7.80
2022-08-07T16:39:40.246Z,7.60
2022-08-07T16:42:55.086Z,7.60
2022-08-07T16:46:40.582Z,7.60
2022-08-07T16:50:27.339Z,6.90
2022-08-07T16:52:50.573Z,7.80
2022-08-07T16:55:11.402Z,7.20
2022-08-07T16:58:08.242Z,7.10
2022-08-07T17:01:02.257Z,7.90
2022-08-07T17:04:24.490Z,8.00
2022-08-07T17:07:03.447Z,8.40
2022-08-07T17:10:07.772Z,8.00
2022-08-07T17:13:01.796Z,9.90
2022-08-07T17:15:50.823Z,7.40
2022-08-07T17:18:27.458Z,6.90
2022-08-07T17:20:56.786Z,7.90
2022-08-07T17:24:02.094Z,7.40
2022-08-07T17:26:50.937Z,7.30
2022-08-07T17:30:15.339Z,8.70
2022-08-07T17:32:53.352Z,9.10
2022-08-07T17:35:54.535Z,8.20
2022-08-07T17:38:50.184Z,13.20
2022-08-07T17:42:01.755Z,10.40
2022-08-07T17:45:01.340Z,7.60
2022-08-07T17:48:10.305Z,8.20
2022-08-07T17:50:57.851Z,7.00
2022-08-07T17:54:01.142Z,10.80
2022-08-07T17:56:34.512Z,8.60
2022-08-07T17:59:24.029Z,9.30
2022-08-07T18:02:01.445Z,13.60
2022-08-07T18:05:21.557Z,9.70
2022-08-07T18:08:03.606Z,9.20
2022-08-07T18:12:12.003Z,9.40
2022-08-07T18:13:48.095Z,8.10
2022-08-07T18:16:58.723Z,9.00
2022-08-07T18:21:08.289Z,10.10
2022-08-07T18:22:58.417Z,8.10
2022-08-07T18:25:40.328Z,8.90
2022-08-07T18:28:35.500Z,13.40
2022-08-07T18:31:18.650Z,12.30
2022-08-07T18:33:58.211Z,9.00
2022-08-07T18:36:54.291Z,10.40
2022-08-07T18:40:08.226Z,10.30
2022-08-07T18:42:50.055Z,12.80
2022-08-07T18:45:39.794Z,12.70
2022-08-07T18:50:05.625Z,14.00
2022-08-07T18:52:34.748Z,12.30
2022-08-07T18:54:27.725Z,10.30
2022-08-07T18:57:36.816Z,8.80
2022-08-07T19:00:33.104Z,10.30
2022-08-07T19:03:38.922Z,10.70
2022-08-07T19:06:16.578Z,13.40
2022-08-07T19:12:17.782Z,9.90
2022-08-07T19:14:52.613Z,8.60
2022-08-07T19:17:55.977Z,8.60
2022-08-07T19:21:09.159Z,11.10
2022-08-07T19:23:59.232Z,13.30
2022-08-07T19:27:01.856Z,10.30
2022-08-07T19:31:04.683Z,11.50
2022-08-07T19:32:28.786Z,11.50
2022-08-07T19:35:10.845Z,13.10
2022-08-07T19:37:56.533Z,11.40
2022-08-07T19:40:31.423Z,10.00
2022-08-07T19:43:21.581Z,11.00
2022-08-07T19:46:11.306Z,9.70
2022-08-07T19:48:53.729Z,10.20
2022-08-07T19:51:53.255Z,9.50
2022-08-07T19:54:29.722Z,10.50
2022-08-07T19:58:01.165Z,9.70
2022-08-07T20:00:08.941Z,9.60
2022-08-07T20:03:33.978Z,9.00
2022-08-07T20:06:06.606Z,10.30
2022-08-07T20:08:50.264Z,9.50
2022-08-07T20:11:34.100Z,8.40
2022-08-07T20:14:23.091Z,12.50
2022-08-07T20:17:03.808Z,10.50
2022-08-07T20:19:48.285Z,10.10
2022-08-07T20:22:34.526Z,9.80
2022-08-07T20:25:12.750Z,10.40
2022-08-07T20:27:54.311Z,9.20
2022-08-07T20:30:37.109Z,11.20
2022-08-07T20:33:24.408Z,8.90
2022-08-07T20:36:06.297Z,8.40
2022-08-07T20:38:59.327Z,9.70
2022-08-07T20:41:33.869Z,11.10
2022-08-07T20:44:10.281Z,10.40
2022-08-07T20:46:45.145Z,9.90
2022-08-07T20:50:00.114Z,9.80
2022-08-07T20:52:21.139Z,10.40
2022-08-07T20:54:58.226Z,12.00
2022-08-07T20:57:38.318Z,9.80
2022-08-07T21:00:22.068Z,9.40
2022-08-07T21:03:04.674Z,9.50
2022-08-07T21:06:21.730Z,10.90
2022-08-07T21:09:15.147Z,10.80
2022-08-07T21:11:50.192Z,10.70
2022-08-07T21:14:38.230Z,10.10
2022-08-07T21:18:20.296Z,9.90
2022-08-07T21:20:26.634Z,8.70
2022-08-07T21:23:15.323Z,10.00
2022-08-07T21:25:43.688Z,9.10
2022-08-07T21:28:48.594Z,10.10
2022-08-07T21:32:10.782Z,9.00
2022-08-07T21:34:46.215Z,9.30
2022-08-07T21:37:58.288Z,9.80
2022-08-07T21:40:59.747Z,10.00
2022-08-07T21:43:56.068Z,11.10
2022-08-07T21:46:44.546Z,9.50
2022-08-07T21:50:01.966Z,9.30
2022-08-07T21:52:57.763Z,9.00
2022-08-07T21:55:45.189Z,9.40
2022-08-07T21:58:32.836Z,9.80
2022-08-07T22:01:13.662Z,8.90
2022-08-07T22:04:02.524Z,8.90
2022-08-07T22:06:58.762Z,8.80
2022-08-07T22:09:37.954Z,9.80
2022-08-07T22:12:46.302Z,9.60
2022-08-07T22:16:42.548Z,10.40
2022-08-07T22:18:42.912Z,8.90
2022-08-07T22:21:20.470Z,9.60
2022-08-07T22:24:10.653Z,8.80
2022-08-07T22:27:02.300Z,9.40
2022-08-07T22:29:49.682Z,9.90
2022-08-07T22:32:45.305Z,10.50
2022-08-07T22:35:13.821Z,9.50
2022-08-07T22:38:04.325Z,15.50
2022-08-07T22:40:40.021Z,9.20
2022-08-07T22:43:12.126Z,10.10
2022-08-07T22:47:02.226Z,9.80
2022-08-07T22:49:25.874Z,10.60
2022-08-07T22:52:19.605Z,8.70
2022-08-07T22:55:30.683Z,9.20
2022-08-07T22:58:34.627Z,9.30
2022-08-07T23:01:49.771Z,9.70
2022-08-07T23:04:56.854Z,8.20
2022-08-07T23:08:23.832Z,8.10
2022-08-07T23:11:17.455Z,8.90
2022-08-07T23:14:17.424Z,10.30
2022-08-07T23:16:58.372Z,8.80
2022-08-07T23:19:59.982Z,10.40
2022-08-07T23:23:09.798Z,7.90
2022-08-07T23:25:44.660Z,8.30
2022-08-07T23:28:29.045Z,8.60
2022-08-07T23:31:18.820Z,7.90
2022-08-07T23:34:38.324Z,9.10
2022-08-07T23:38:00.365Z,9.30
2022-08-07T23:41:08.487Z,8.10
2022-08-07T23:43:59.043Z,8.60
2022-08-07T23:47:09.415Z,8.50
2022-08-07T23:50:16.370Z,8.40
2022-08-07T23:55:55.890Z,9.60
2022-08-07T23:58:50.875Z,9.10
